sensor_id;sensor_type;location;lat;lon;timestamp;pressure;altitude;pressure_sealevel;temperature;humidity
76858;BME280;65830;0.000;0.000;2023-03-01T00:00:45;100547.72;;;6.50;78.75
76858;BME280;65830;0.000;0.000;2023-03-01T00:03:12;100533.63;;;6.65;78.08
76858;BME280;65830;0.000;0.000;2023-03-01T00:05:43;100540.41;;;6.69;77.53
76858;BME280;65830;0.000;0.000;2023-03-01T00:08:08;100544.06;;;6.52;78.07
76858;BME280;65830;0.000;0.000;2023-03-01T00:10:34;100542.13;;;6.40;78.40
76858;BME280;65830;0.000;0.000;2023-03-01T00:12:59;100547.72;;;6.20;78.90
76858;BME280;65830;0.000;0.000;2023-03-01T00:15:25;100547.69;;;6.05;80.08
76858;BME280;65830;0.000;0.000;2023-03-01T00:17:50;100542.19;;;6.24;79.73
76858;BME280;65830;0.000;0.000;2023-03-01T00:20:16;100543.25;;;6.36;78.78
76858;BME280;65830;0.000;0.000;2023-03-01T00:22:41;100544.50;;;6.45;79.23
76858;BME280;65830;0.000;0.000;2023-03-01T00:25:07;100541.22;;;6.55;78.40
76858;BME280;65830;0.000;0.000;2023-03-01T00:27:32;100539.03;;;6.48;78.39
76858;BME280;65830;0.000;0.000;2023-03-01T00:29:58;100536.78;;;6.42;78.92
76858;BME280;65830;0.000;0.000;2023-03-01T00:32:24;100543.50;;;6.62;78.34
76858;BME280;65830;0.000;0.000;2023-03-01T00:34:50;100544.16;;;6.51;77.92
76858;BME280;65830;0.000;0.000;2023-03-01T00:37:21;100542.25;;;6.53;78.04
76858;BME280;65830;0.000;0.000;2023-03-01T00:39:47;100537.34;;;6.47;78.03
76858;BME280;65830;0.000;0.000;2023-03-01T00:42:12;100534.09;;;6.27;78.96
76858;BME280;65830;0.000;0.000;2023-03-01T00:44:38;100522.59;;;6.44;79.04
76858;BME280;65830;0.000;0.000;2023-03-01T00:47:03;100524.84;;;6.50;78.64
76858;BME280;65830;0.000;0.000;2023-03-01T00:49:30;100521.94;;;6.55;nan
76858;BME280;65830;0.000;0.000;2023-03-01T00:51:56;100514.84;;;6.41;78.02
76858;BME280;65830;0.000;0.000;2023-03-01T00:54:22;100503.84;;;6.49;77.26
76858;BME280;65830;0.000;0.000;2023-03-01T00:56:48;100500.59;;;6.29;77.53
76858;BME280;65830;0.000;0.000;2023-03-01T00:59:13;100503.53;;;6.39;78.54
76858;BME280;65830;0.000;0.000;2023-03-01T01:01:39;100504.13;;;6.44;78.01
76858;BME280;65830;0.000;0.000;2023-03-01T01:04:06;100506.34;;;6.36;78.30
76858;BME280;65830;0.000;0.000;2023-03-01T01:06:36;100513.00;;;6.13;79.42
76858;BME280;65830;0.000;0.000;2023-03-01T01:09:03;100506.63;;;6.31;78.42
76858;BME280;65830;0.000;0.000;2023-03-01T01:11:29;100510.78;;;6.50;78.56
76858;BME280;65830;0.000;0.000;2023-03-01T01:13:55;100499.75;;;6.29;77.87
76858;BME280;65830;0.000;0.000;2023-03-01T01:16:22;100504.66;;;6.35;78.40
76858;BME280;65830;0.000;0.000;2023-03-01T01:18:48;100499.50;;;6.48;78.31
76858;BME280;65830;0.000;0.000;2023-03-01T01:21:15;100494.22;;;6.48;78.29
76858;BME280;65830;0.000;0.000;2023-03-01T01:23:41;100496.41;;;6.55;77.71
76858;BME280;65830;0.000;0.000;2023-03-01T01:26:08;100495.38;;;6.58;77.38
76858;BME280;65830;0.000;0.000;2023-03-01T01:28:34;100504.06;;;6.74;77.27
76858;BME280;65830;0.000;0.000;2023-03-01T01:31:00;100499.63;;;6.75;76.92
76858;BME280;65830;0.000;0.000;2023-03-01T01:33:26;100479.53;;;6.44;77.43
76858;BME280;65830;0.000;0.000;2023-03-01T01:35:52;100495.47;;;6.56;77.34
76858;BME280;65830;0.000;0.000;2023-03-01T01:38:17;100490.84;;;6.46;77.67
76858;BME280;65830;0.000;0.000;2023-03-01T01:40:43;100490.06;;;6.44;77.68
76858;BME280;65830;0.000;0.000;2023-03-01T01:43:20;100487.81;;;6.52;77.40
76858;BME280;65830;0.000;0.000;2023-03-01T01:45:45;100486.31;;;6.48;77.24
76858;BME280;65830;0.000;0.000;2023-03-01T01:48:12;100487.59;;;6.26;78.48
76858;BME280;65830;0.000;0.000;2023-03-01T01:50:40;100499.09;;;6.40;78.25
76858;BME280;65830;0.000;0.000;2023-03-01T01:53:10;100490.50;;;6.66;77.33
76858;BME280;65830;0.000;0.000;2023-03-01T01:55:39;100481.63;;;6.67;77.37
76858;BME280;65830;0.000;0.000;2023-03-01T01:58:06;100482.00;;;6.61;77.04
76858;BME280;65830;0.000;0.000;2023-03-01T02:00:34;100476.88;;;6.29;77.86
76858;BME280;65830;0.000;0.000;2023-03-01T02:03:01;100476.22;;;6.40;77.91
76858;BME280;65830;0.000;0.000;2023-03-01T02:08:08;100477.47;;;6.34;77.78
76858;BME280;65830;0.000;0.000;2023-03-01T02:10:36;100473.34;;;6.59;77.72
76858;BME280;65830;0.000;0.000;2023-03-01T02:13:02;100484.47;;;6.20;78.23
76858;BME280;65830;0.000;0.000;2023-03-01T02:15:31;100482.00;;;6.32;78.53
76858;BME280;65830;0.000;0.000;2023-03-01T02:17:57;100487.31;;;6.16;78.92
76858;BME280;65830;0.000;0.000;2023-03-01T02:20:27;100481.75;;;6.21;78.74
76858;BME280;65830;0.000;0.000;2023-03-01T02:22:57;100474.59;;;6.09;78.74
76858;BME280;65830;0.000;0.000;2023-03-01T02:27:57;100473.84;;;6.21;79.50
76858;BME280;65830;0.000;0.000;2023-03-01T02:30:25;100478.00;;;6.25;79.50
76858;BME280;65830;0.000;0.000;2023-03-01T02:32:51;100476.78;;;6.31;78.79
76858;BME280;65830;0.000;0.000;2023-03-01T02:35:18;100472.41;;;6.01;79.35
76858;BME280;65830;0.000;0.000;2023-03-01T02:37:44;100477.78;;;6.14;79.45
76858;BME280;65830;0.000;0.000;2023-03-01T02:40:14;100474.75;;;6.06;80.02
76858;BME280;65830;0.000;0.000;2023-03-01T02:42:45;100479.34;;;6.02;80.54
76858;BME280;65830;0.000;0.000;2023-03-01T02:45:13;100475.41;;;5.95;80.63
76858;BME280;65830;0.000;0.000;2023-03-01T02:47:38;100480.97;;;6.05;80.41
76858;BME280;65830;0.000;0.000;2023-03-01T02:50:10;100472.09;;;5.75;81.04
76858;BME280;65830;0.000;0.000;2023-03-01T02:52:45;100472.56;;;5.82;81.02
76858;BME280;65830;0.000;0.000;2023-03-01T02:55:16;100475.28;;;5.96;80.86
76858;BME280;65830;0.000;0.000;2023-03-01T02:57:44;100469.84;;;6.00;80.51
76858;BME280;65830;0.000;0.000;2023-03-01T03:00:13;100471.28;;;5.89;80.82
76858;BME280;65830;0.000;0.000;2023-03-01T03:02:47;100470.13;;;5.79;81.20
76858;BME280;65830;0.000;0.000;2023-03-01T03:05:24;100469.09;;;5.97;81.19
76858;BME280;65830;0.000;0.000;2023-03-01T03:07:53;100471.09;;;5.92;81.06
76858;BME280;65830;0.000;0.000;2023-03-01T03:10:23;100471.72;;;5.97;80.89
76858;BME280;65830;0.000;0.000;2023-03-01T03:12:50;100471.72;;;5.97;80.49
76858;BME280;65830;0.000;0.000;2023-03-01T03:15:17;100455.19;;;6.10;80.68
76858;BME280;65830;0.000;0.000;2023-03-01T03:17:43;100469.59;;;5.88;80.29
76858;BME280;65830;0.000;0.000;2023-03-01T03:20:09;100465.16;;;6.05;79.87
76858;BME280;65830;0.000;0.000;2023-03-01T03:22:39;100463.06;;;5.95;80.46
76858;BME280;65830;0.000;0.000;2023-03-01T03:25:06;100466.28;;;6.01;80.41
76858;BME280;65830;0.000;0.000;2023-03-01T03:27:36;100458.41;;;5.85;80.95
76858;BME280;65830;0.000;0.000;2023-03-01T03:30:03;100459.31;;;6.00;81.21
76858;BME280;65830;0.000;0.000;2023-03-01T03:32:29;100473.72;;;6.08;80.97
76858;BME280;65830;0.000;0.000;2023-03-01T03:34:55;100468.38;;;6.24;80.47
76858;BME280;65830;0.000;0.000;2023-03-01T03:37:20;100464.59;;;6.00;80.63
76858;BME280;65830;0.000;0.000;2023-03-01T03:40:05;100473.91;;;6.05;80.76
76858;BME280;65830;0.000;0.000;2023-03-01T03:42:40;100461.31;;;5.94;81.17
76858;BME280;65830;0.000;0.000;2023-03-01T03:45:06;100463.88;;;5.66;82.27
76858;BME280;65830;0.000;0.000;2023-03-01T03:47:32;100462.31;;;5.77;82.56
76858;BME280;65830;0.000;0.000;2023-03-01T03:50:16;100448.50;;;5.58;83.32
76858;BME280;65830;0.000;0.000;2023-03-01T03:52:42;100450.31;;;5.57;83.35
76858;BME280;65830;0.000;0.000;2023-03-01T03:55:08;100451.31;;;5.71;82.58
76858;BME280;65830;0.000;0.000;2023-03-01T03:57:45;100454.94;;;5.68;83.56
76858;BME280;65830;0.000;0.000;2023-03-01T04:00:20;100456.63;;;5.85;82.91
76858;BME280;65830;0.000;0.000;2023-03-01T04:02:46;100460.38;;;5.81;83.00
76858;BME280;65830;0.000;0.000;2023-03-01T04:05:12;100467.28;;;5.98;81.70
76858;BME280;65830;0.000;0.000;2023-03-01T04:07:39;100457.38;;;6.18;81.46
76858;BME280;65830;0.000;0.000;2023-03-01T04:10:06;100452.69;;;6.23;80.75
76858;BME280;65830;0.000;0.000;2023-03-01T04:12:32;100455.09;;;5.97;81.20
76858;BME280;65830;0.000;0.000;2023-03-01T04:14:59;100457.72;;;5.97;81.45
76858;BME280;65830;0.000;0.000;2023-03-01T04:17:25;100460.59;;;5.76;82.43
76858;BME280;65830;0.000;0.000;2023-03-01T04:19:50;100460.72;;;5.75;82.50
76858;BME280;65830;0.000;0.000;2023-03-01T04:22:16;100467.25;;;5.68;82.43
76858;BME280;65830;0.000;0.000;2023-03-01T04:24:46;100467.50;;;5.79;82.72
76858;BME280;65830;0.000;0.000;2023-03-01T04:27:11;100459.00;;;5.74;82.44
76858;BME280;65830;0.000;0.000;2023-03-01T04:29:37;100461.53;;;5.91;82.30
76858;BME280;65830;0.000;0.000;2023-03-01T04:32:03;100469.78;;;5.85;82.40
76858;BME280;65830;0.000;0.000;2023-03-01T04:34:29;100456.84;;;5.81;82.36
76858;BME280;65830;0.000;0.000;2023-03-01T04:36:54;100462.72;;;5.86;82.18
76858;BME280;65830;0.000;0.000;2023-03-01T04:39:20;100479.63;;;5.82;82.60
76858;BME280;65830;0.000;0.000;2023-03-01T04:41:46;100478.13;;;5.77;82.19
76858;BME280;65830;0.000;0.000;2023-03-01T04:44:11;100474.28;;;5.83;82.31
76858;BME280;65830;0.000;0.000;2023-03-01T04:46:38;100478.28;;;5.74;82.96
76858;BME280;65830;0.000;0.000;2023-03-01T04:49:03;100480.69;;;5.63;82.85
76858;BME280;65830;0.000;0.000;2023-03-01T04:51:29;100478.16;;;5.92;82.92
76858;BME280;65830;0.000;0.000;2023-03-01T04:53:54;100478.88;;;5.80;82.28
76858;BME280;65830;0.000;0.000;2023-03-01T04:56:20;100479.19;;;5.89;82.58
76858;BME280;65830;0.000;0.000;2023-03-01T04:58:48;100478.25;;;5.90;82.36
76858;BME280;65830;0.000;0.000;2023-03-01T05:01:15;100476.31;;;5.78;82.11
76858;BME280;65830;0.000;0.000;2023-03-01T05:03:41;100471.06;;;5.78;82.47
76858;BME280;65830;0.000;0.000;2023-03-01T05:06:07;100469.84;;;6.00;82.36
76858;BME280;65830;0.000;0.000;2023-03-01T05:08:33;100473.59;;;5.95;82.18
76858;BME280;65830;0.000;0.000;2023-03-01T05:10:59;100465.19;;;5.89;82.11
76858;BME280;65830;0.000;0.000;2023-03-01T05:13:24;100470.88;;;5.97;82.42
76858;BME280;65830;0.000;0.000;2023-03-01T05:15:54;100472.97;;;5.90;82.09
76858;BME280;65830;0.000;0.000;2023-03-01T05:18:19;100471.22;;;5.91;82.16
76858;BME280;65830;0.000;0.000;2023-03-01T05:20:45;100470.50;;;5.73;82.61
76858;BME280;65830;0.000;0.000;2023-03-01T05:23:11;100469.75;;;5.55;82.70
76858;BME280;65830;0.000;0.000;2023-03-01T05:25:37;100460.19;;;5.68;82.87
76858;BME280;65830;0.000;0.000;2023-03-01T05:28:06;100469.00;;;5.99;82.09
76858;BME280;65830;0.000;0.000;2023-03-01T05:30:32;100474.78;;;5.90;82.37
76858;BME280;65830;0.000;0.000;2023-03-01T05:32:58;100471.72;;;5.97;81.89
76858;BME280;65830;0.000;0.000;2023-03-01T05:35:23;100477.91;;;5.96;81.32
76858;BME280;65830;0.000;0.000;2023-03-01T05:37:50;100482.13;;;6.15;81.47
76858;BME280;65830;0.000;0.000;2023-03-01T05:40:16;100486.25;;;6.05;81.47
76858;BME280;65830;0.000;0.000;2023-03-01T05:42:43;100486.06;;;5.92;81.47
76858;BME280;65830;0.000;0.000;2023-03-01T05:45:09;100483.78;;;6.02;81.71
76858;BME280;65830;0.000;0.000;2023-03-01T05:47:35;100482.03;;;6.16;80.74
76858;BME280;65830;0.000;0.000;2023-03-01T05:50:01;100487.47;;;6.13;80.74
76858;BME280;65830;0.000;0.000;2023-03-01T05:52:26;100493.78;;;6.11;81.07
76858;BME280;65830;0.000;0.000;2023-03-01T05:54:52;100493.13;;;6.07;80.54
76858;BME280;65830;0.000;0.000;2023-03-01T05:57:17;100494.69;;;5.95;81.19
76858;BME280;65830;0.000;0.000;2023-03-01T05:59:43;100503.47;;;6.10;81.39
76858;BME280;65830;0.000;0.000;2023-03-01T06:02:08;100505.09;;;6.13;81.57
76858;BME280;65830;0.000;0.000;2023-03-01T06:04:34;100506.22;;;6.09;81.48
76858;BME280;65830;0.000;0.000;2023-03-01T06:06:59;100504.00;;;6.01;80.69
76858;BME280;65830;0.000;0.000;2023-03-01T06:09:25;100503.16;;;6.01;80.93
76858;BME280;65830;0.000;0.000;2023-03-01T06:11:51;100501.78;;;6.09;81.16
76858;BME280;65830;0.000;0.000;2023-03-01T06:14:16;100509.03;;;6.20;80.73
76858;BME280;65830;0.000;0.000;2023-03-01T06:16:42;100507.66;;;6.29;80.25
76858;BME280;65830;0.000;0.000;2023-03-01T06:19:07;100506.53;;;6.19;80.71
76858;BME280;65830;0.000;0.000;2023-03-01T06:21:33;100501.00;;;6.38;80.05
76858;BME280;65830;0.000;0.000;2023-03-01T06:23:58;100502.13;;;6.33;80.02
76858;BME280;65830;0.000;0.000;2023-03-01T06:26:24;100504.72;;;6.19;79.86
76858;BME280;65830;0.000;0.000;2023-03-01T06:28:49;100510.28;;;6.14;80.51
76858;BME280;65830;0.000;0.000;2023-03-01T06:31:15;100511.59;;;6.22;80.48
76858;BME280;65830;0.000;0.000;2023-03-01T06:33:40;100510.06;;;6.18;80.72
76858;BME280;65830;0.000;0.000;2023-03-01T06:36:06;100506.38;;;6.06;80.61
76858;BME280;65830;0.000;0.000;2023-03-01T06:38:32;100501.50;;;6.14;81.14
76858;BME280;65830;0.000;0.000;2023-03-01T06:40:57;100507.66;;;6.29;80.44
76858;BME280;65830;0.000;0.000;2023-03-01T06:43:23;100500.66;;;6.13;80.79
76858;BME280;65830;0.000;0.000;2023-03-01T06:45:48;100505.34;;;6.39;80.30
76858;BME280;65830;0.000;0.000;2023-03-01T06:48:14;100509.50;;;6.57;79.93
76858;BME280;65830;0.000;0.000;2023-03-01T06:50:40;100506.28;;;6.52;78.60
76858;BME280;65830;0.000;0.000;2023-03-01T06:53:05;100505.97;;;6.28;79.33
76858;BME280;65830;0.000;0.000;2023-03-01T06:55:31;100508.16;;;6.50;79.81
76858;BME280;65830;0.000;0.000;2023-03-01T06:57:57;100510.59;;;6.39;79.57
76858;BME280;65830;0.000;0.000;2023-03-01T07:00:23;100514.56;;;6.46;79.78
76858;BME280;65830;0.000;0.000;2023-03-01T07:02:49;100525.31;;;6.43;80.19
76858;BME280;65830;0.000;0.000;2023-03-01T07:05:14;100509.88;;;6.51;79.52
76858;BME280;65830;0.000;0.000;2023-03-01T07:07:40;100512.44;;;6.67;78.93
76858;BME280;65830;0.000;0.000;2023-03-01T07:10:05;100511.22;;;6.58;79.09
76858;BME280;65830;0.000;0.000;2023-03-01T07:12:31;100506.19;;;6.68;78.78
76858;BME280;65830;0.000;0.000;2023-03-01T07:14:57;100505.19;;;6.70;78.29
76858;BME280;65830;0.000;0.000;2023-03-01T07:17:22;100511.22;;;6.72;78.78
76858;BME280;65830;0.000;0.000;2023-03-01T07:19:48;100513.75;;;6.88;78.52
76858;BME280;65830;0.000;0.000;2023-03-01T07:22:13;100513.94;;;7.00;77.55
76858;BME280;65830;0.000;0.000;2023-03-01T07:24:39;100508.56;;;7.15;77.22
76858;BME280;65830;0.000;0.000;2023-03-01T07:27:05;100511.13;;;7.03;77.11
76858;BME280;65830;0.000;0.000;2023-03-01T07:29:31;100513.47;;;7.22;77.32
76858;BME280;65830;0.000;0.000;2023-03-01T07:31:56;100504.06;;;6.89;78.12
76858;BME280;65830;0.000;0.000;2023-03-01T07:34:22;100511.13;;;6.88;77.89
76858;BME280;65830;0.000;0.000;2023-03-01T07:36:47;100508.00;;;7.10;77.50
76858;BME280;65830;0.000;0.000;2023-03-01T07:39:13;100505.25;;;6.97;76.98
76858;BME280;65830;0.000;0.000;2023-03-01T07:41:38;100510.44;;;6.99;77.05
76858;BME280;65830;0.000;0.000;2023-03-01T07:44:04;100504.53;;;7.10;77.00
76858;BME280;65830;0.000;0.000;2023-03-01T07:46:30;100499.97;;;7.26;76.27
76858;BME280;65830;0.000;0.000;2023-03-01T07:48:55;100499.25;;;7.10;75.95
76858;BME280;65830;0.000;0.000;2023-03-01T07:51:21;100495.56;;;6.98;76.43
76858;BME280;65830;0.000;0.000;2023-03-01T07:53:46;100498.97;;;7.00;76.90
76858;BME280;65830;0.000;0.000;2023-03-01T07:56:13;100503.28;;;7.01;76.92
76858;BME280;65830;0.000;0.000;2023-03-01T07:58:40;100497.75;;;7.06;76.43
76858;BME280;65830;0.000;0.000;2023-03-01T08:01:07;100490.47;;;7.24;76.09
76858;BME280;65830;0.000;0.000;2023-03-01T08:03:33;100495.25;;;7.31;76.09
76858;BME280;65830;0.000;0.000;2023-03-01T08:05:59;100498.38;;;6.95;76.66
76858;BME280;65830;0.000;0.000;2023-03-01T08:08:25;100492.28;;;6.94;76.93
76858;BME280;65830;0.000;0.000;2023-03-01T08:10:50;100491.06;;;6.86;77.31
76858;BME280;65830;0.000;0.000;2023-03-01T08:13:16;100492.53;;;7.19;77.04
76858;BME280;65830;0.000;0.000;2023-03-01T08:15:50;100500.25;;;7.22;76.42
76858;BME280;65830;0.000;0.000;2023-03-01T08:18:17;100492.56;;;7.04;76.86
76858;BME280;65830;0.000;0.000;2023-03-01T08:20:42;100497.84;;;7.04;76.18
76858;BME280;65830;0.000;0.000;2023-03-01T08:23:08;100496.75;;;7.21;76.20
76858;BME280;65830;0.000;0.000;2023-03-01T08:25:33;100497.63;;;7.07;76.12
76858;BME280;65830;0.000;0.000;2023-03-01T08:27:59;100500.66;;;7.01;76.87
76858;BME280;65830;0.000;0.000;2023-03-01T08:30:24;100491.47;;;7.21;76.26
76858;BME280;65830;0.000;0.000;2023-03-01T08:32:50;100488.09;;;7.19;76.89
76858;BME280;65830;0.000;0.000;2023-03-01T08:35:16;100487.81;;;7.51;76.58
76858;BME280;65830;0.000;0.000;2023-03-01T08:37:41;100486.63;;;7.42;75.92
76858;BME280;65830;0.000;0.000;2023-03-01T08:40:07;100481.41;;;7.28;76.52
76858;BME280;65830;0.000;0.000;2023-03-01T08:42:35;100481.56;;;7.25;76.67
76858;BME280;65830;0.000;0.000;2023-03-01T08:45:00;100485.88;;;7.40;76.27
76858;BME280;65830;0.000;0.000;2023-03-01T08:47:26;100489.84;;;7.47;75.40
76858;BME280;65830;0.000;0.000;2023-03-01T08:49:51;100503.41;;;7.41;75.83
76858;BME280;65830;0.000;0.000;2023-03-01T08:52:18;100492.78;;;7.70;76.10
76858;BME280;65830;0.000;0.000;2023-03-01T08:54:44;100488.16;;;7.86;75.20
76858;BME280;65830;0.000;0.000;2023-03-01T08:57:10;100484.50;;;7.62;75.17
76858;BME280;65830;0.000;0.000;2023-03-01T08:59:35;100494.41;;;7.58;75.54
76858;BME280;65830;0.000;0.000;2023-03-01T09:02:03;100480.50;;;7.69;75.20
76858;BME280;65830;0.000;0.000;2023-03-01T09:04:28;100486.63;;;7.42;75.75
76858;BME280;65830;0.000;0.000;2023-03-01T09:06:54;100493.72;;;7.69;76.10
76858;BME280;65830;0.000;0.000;2023-03-01T09:09:20;100490.94;;;7.43;76.17
76858;BME280;65830;0.000;0.000;2023-03-01T09:11:45;100489.16;;;7.71;75.72
76858;BME280;65830;0.000;0.000;2023-03-01T09:14:12;100485.25;;;7.64;75.81
76858;BME280;65830;0.000;0.000;2023-03-01T09:16:37;100486.94;;;7.65;75.02
76858;BME280;65830;0.000;0.000;2023-03-01T09:19:03;100492.97;;;7.40;76.16
76858;BME280;65830;0.000;0.000;2023-03-01T09:21:29;100501.38;;;7.86;75.49
76858;BME280;65830;0.000;0.000;2023-03-01T09:23:55;100498.94;;;7.56;75.20
76858;BME280;65830;0.000;0.000;2023-03-01T09:26:21;100498.00;;;7.84;75.45
76858;BME280;65830;0.000;0.000;2023-03-01T09:28:49;100493.69;;;7.83;74.78
76858;BME280;65830;0.000;0.000;2023-03-01T09:31:15;100494.44;;;7.71;75.44
76858;BME280;65830;0.000;0.000;2023-03-01T09:33:41;100493.72;;;7.69;75.16
76858;BME280;65830;0.000;0.000;2023-03-01T09:36:11;100490.56;;;7.76;75.03
76858;BME280;65830;0.000;0.000;2023-03-01T09:38:37;100481.41;;;7.82;75.14
76858;BME280;65830;0.000;0.000;2023-03-01T09:41:11;100477.06;;;7.81;74.46
76858;BME280;65830;0.000;0.000;2023-03-01T09:46:11;100481.03;;;8.01;74.27
76858;BME280;65830;0.000;0.000;2023-03-01T09:48:41;100474.44;;;7.81;74.93
76858;BME280;65830;0.000;0.000;2023-03-01T09:51:08;100479.47;;;7.44;75.77
76858;BME280;65830;0.000;0.000;2023-03-01T09:53:37;100474.78;;;7.62;76.50
76858;BME280;65830;0.000;0.000;2023-03-01T09:56:24;100475.47;;;7.79;76.49
76858;BME280;65830;0.000;0.000;2023-03-01T09:58:59;100472.31;;;7.86;75.57
76858;BME280;65830;0.000;0.000;2023-03-01T10:06:45;100458.50;;;7.95;75.13
76858;BME280;65830;0.000;0.000;2023-03-01T10:09:16;100455.13;;;7.66;75.29
76858;BME280;65830;0.000;0.000;2023-03-01T10:11:45;100460.09;;;7.58;75.84
76858;BME280;65830;0.000;0.000;2023-03-01T10:14:18;100462.56;;;7.74;75.65
76858;BME280;65830;0.000;0.000;2023-03-01T10:16:50;100462.53;;;7.61;74.97
76858;BME280;65830;0.000;0.000;2023-03-01T10:21:53;100461.66;;;7.61;74.95
76858;BME280;65830;0.000;0.000;2023-03-01T10:24:22;100457.94;;;7.78;75.01
76858;BME280;65830;0.000;0.000;2023-03-01T10:26:54;100461.34;;;7.92;75.29
76858;BME280;65830;0.000;0.000;2023-03-01T10:29:23;100449.09;;;7.91;75.44
76858;BME280;65830;0.000;0.000;2023-03-01T10:31:50;100454.44;;;7.77;75.63
76858;BME280;65830;0.000;0.000;2023-03-01T10:34:17;100451.06;;;7.48;77.02
76858;BME280;65830;0.000;0.000;2023-03-01T10:36:44;100448.31;;;7.22;77.58
76858;BME280;65830;0.000;0.000;2023-03-01T10:39:16;100450.31;;;7.19;78.39
76858;BME280;65830;0.000;0.000;2023-03-01T10:42:02;100462.97;;;7.41;78.42
76858;BME280;65830;0.000;0.000;2023-03-01T10:44:42;100455.66;;;7.31;78.47
76858;BME280;65830;0.000;0.000;2023-03-01T10:47:16;100453.16;;;7.70;77.95
76858;BME280;65830;0.000;0.000;2023-03-01T10:52:23;100438.88;;;7.60;77.83
76858;BME280;65830;0.000;0.000;2023-03-01T10:54:56;100446.72;;;7.47;77.31
76858;BME280;65830;0.000;0.000;2023-03-01T10:57:35;100450.00;;;7.50;77.02
76858;BME280;65830;0.000;0.000;2023-03-01T11:00:16;100434.44;;;7.73;77.12
76858;BME280;65830;0.000;0.000;2023-03-01T11:02:47;100432.59;;;7.88;76.41
76858;BME280;65830;0.000;0.000;2023-03-01T11:07:54;100431.00;;;7.85;76.31
76858;BME280;65830;0.000;0.000;2023-03-01T11:10:21;100418.22;;;7.79;76.28
76858;BME280;65830;0.000;0.000;2023-03-01T11:12:47;100411.63;;;7.72;76.49
76858;BME280;65830;0.000;0.000;2023-03-01T11:15:24;100408.16;;;7.71;76.34
76858;BME280;65830;0.000;0.000;2023-03-01T11:17:50;100409.00;;;7.72;75.72
76858;BME280;65830;0.000;0.000;2023-03-01T11:20:27;100406.81;;;8.04;75.34
76858;BME280;65830;0.000;0.000;2023-03-01T11:22:55;100397.06;;;7.79;75.37
76858;BME280;65830;0.000;0.000;2023-03-01T11:25:25;100403.09;;;7.81;74.49
76858;BME280;65830;0.000;0.000;2023-03-01T11:27:52;100396.09;;;7.67;75.03
76858;BME280;65830;0.000;0.000;2023-03-01T11:32:53;100396.09;;;7.67;76.12
76858;BME280;65830;0.000;0.000;2023-03-01T11:35:25;100389.03;;;7.81;75.54
76858;BME280;65830;0.000;0.000;2023-03-01T11:43:04;100377.59;;;7.67;75.67
76858;BME280;65830;0.000;0.000;2023-03-01T11:45:39;100382.16;;;7.78;76.63
76858;BME280;65830;0.000;0.000;2023-03-01T11:55:36;100354.41;;;8.11;74.26
76858;BME280;65830;0.000;0.000;2023-03-01T12:05:46;100373.19;;;7.93;73.84
76858;BME280;65830;0.000;0.000;2023-03-01T12:08:19;100362.22;;;8.00;73.63
76858;BME280;65830;0.000;0.000;2023-03-01T12:10:57;100365.28;;;8.19;73.72
76858;BME280;65830;0.000;0.000;2023-03-01T12:20:53;100351.94;;;8.08;73.56
76858;BME280;65830;0.000;0.000;2023-03-01T12:34:53;100337.06;;;8.07;72.67
76858;BME280;65830;0.000;0.000;2023-03-01T12:39:39;100350.28;;;8.07;72.69
76858;BME280;65830;0.000;0.000;2023-03-01T12:52:14;100339.88;;;8.16;73.70
76858;BME280;65830;0.000;0.000;2023-03-01T12:54:43;100335.59;;;8.03;73.45
76858;BME280;65830;0.000;0.000;2023-03-01T13:00:05;100331.31;;;7.62;74.40
76858;BME280;65830;0.000;0.000;2023-03-01T13:02:40;100337.66;;;7.59;74.21
76858;BME280;65830;0.000;0.000;2023-03-01T13:06:00;100331.31;;;7.62;74.06
76858;BME280;65830;0.000;0.000;2023-03-01T13:17:48;100323.31;;;7.76;74.11
76858;BME280;65830;0.000;0.000;2023-03-01T13:20:15;100328.06;;;7.84;74.18
76858;BME280;65830;0.000;0.000;2023-03-01T13:22:41;100332.94;;;7.77;74.29
76858;BME280;65830;0.000;0.000;2023-03-01T13:25:17;100331.56;;;7.97;73.54
76858;BME280;65830;0.000;0.000;2023-03-01T13:27:44;100337.69;;;7.98;73.26
76858;BME280;65830;0.000;0.000;2023-03-01T13:30:52;100333.56;;;7.93;73.72
76858;BME280;65830;0.000;0.000;2023-03-01T13:35:43;100337.38;;;7.89;74.00
76858;BME280;65830;0.000;0.000;2023-03-01T13:43:26;100341.25;;;7.58;75.25
76858;BME280;65830;0.000;0.000;2023-03-01T13:45:52;100340.41;;;7.70;74.79
76858;BME280;65830;0.000;0.000;2023-03-01T13:51:02;100337.25;;;8.04;73.99
76858;BME280;65830;0.000;0.000;2023-03-01T13:53:36;100330.69;;;7.96;73.11
76858;BME280;65830;0.000;0.000;2023-03-01T13:56:12;100344.78;;;7.97;73.16
76858;BME280;65830;0.000;0.000;2023-03-01T13:58:45;100330.91;;;7.93;73.00
76858;BME280;65830;0.000;0.000;2023-03-01T14:01:22;100326.78;;;7.76;73.68
76858;BME280;65830;0.000;0.000;2023-03-01T14:03:48;100333.53;;;7.68;74.01
76858;BME280;65830;0.000;0.000;2023-03-01T14:06:14;100337.25;;;7.65;74.12
76858;BME280;65830;0.000;0.000;2023-03-01T14:08:43;100337.69;;;7.98;73.73
76858;BME280;65830;0.000;0.000;2023-03-01T14:19:29;100341.47;;;7.68;75.00
76858;BME280;65830;0.000;0.000;2023-03-01T14:24:29;100336.81;;;7.84;74.40
76858;BME280;65830;0.000;0.000;2023-03-01T14:26:57;100339.69;;;7.94;74.97
76858;BME280;65830;0.000;0.000;2023-03-01T14:29:45;100339.19;;;7.89;74.15
76858;BME280;65830;0.000;0.000;2023-03-01T14:34:35;100335.66;;;7.88;73.59
76858;BME280;65830;0.000;0.000;2023-03-01T14:39:57;100343.69;;;7.61;74.29
76858;BME280;65830;0.000;0.000;2023-03-01T14:42:23;100350.56;;;7.64;74.47
76858;BME280;65830;0.000;0.000;2023-03-01T14:44:50;100354.69;;;7.68;74.49
76858;BME280;65830;0.000;0.000;2023-03-01T14:47:37;100348.94;;;7.48;75.07
76858;BME280;65830;0.000;0.000;2023-03-01T14:50:05;100343.13;;;7.56;75.07
76858;BME280;65830;0.000;0.000;2023-03-01T14:52:39;100343.56;;;7.63;74.60
76858;BME280;65830;0.000;0.000;2023-03-01T14:55:06;100348.03;;;7.75;74.56
76858;BME280;65830;0.000;0.000;2023-03-01T14:57:32;100347.16;;;7.74;74.14
76858;BME280;65830;0.000;0.000;2023-03-01T14:59:59;100349.09;;;7.85;74.49
76858;BME280;65830;0.000;0.000;2023-03-01T15:02:28;100344.97;;;7.81;73.81
76858;BME280;65830;0.000;0.000;2023-03-01T15:04:55;100347.72;;;7.80;74.26
76858;BME280;65830;0.000;0.000;2023-03-01T15:07:29;100345.50;;;7.86;74.04